sensor_id;sensor_type;location;lat;lon;timestamp;pressure;altitude;pressure_sealevel;temperature;humidity
74372;BME280;62885;51.374;6.170;2023-04-03T00:00:45;102651.72;;;2.72;87.14
74372;BME280;62885;51.374;6.170;2023-04-03T00:03:10;102656.03;;;2.78;87.01
74372;BME280;62885;51.374;6.170;2023-04-03T00:05:35;102652.53;;;2.74;86.80
74372;BME280;62885;51.374;6.170;2023-04-03T00:08:01;102654.31;;;2.74;86.97
74372;BME280;62885;51.374;6.170;2023-04-03T00:10:27;102661.50;;;2.63;87.42
74372;BME280;62885;51.374;6.170;2023-04-03T00:12:53;102657.13;;;2.62;87.55
74372;BME280;62885;51.374;6.170;2023-04-03T00:15:18;102651.84;;;2.62;87.43
74372;BME280;62885;51.374;6.170;2023-04-03T00:17:44;102651.03;;;2.55;88.04
74372;BME280;62885;51.374;6.170;2023-04-03T00:20:10;102650.97;;;2.60;87.95
74372;BME280;62885;51.374;6.170;2023-04-03T00:22:36;102654.50;;;2.59;88.21
74372;BME280;62885;51.374;6.170;2023-04-03T00:25:02;102658.09;;;2.56;88.09
74372;BME280;62885;51.374;6.170;2023-04-03T00:27:27;102650.25;;;2.47;87.89
74372;BME280;62885;51.374;6.170;2023-04-03T00:29:53;102659.09;;;2.44;88.41
74372;BME280;62885;51.374;6.170;2023-04-03T00:32:18;102658.28;;;2.36;88.48
74372;BME280;62885;51.374;6.170;2023-04-03T00:34:43;102659.09;;;2.43;88.96
74372;BME280;62885;51.374;6.170;2023-04-03T00:37:09;102660.94;;;2.36;88.41
74372;BME280;62885;51.374;6.170;2023-04-03T00:39:34;102650.38;;;2.33;88.88
74372;BME280;62885;51.374;6.170;2023-04-03T00:42:00;102653.13;;;2.24;89.12
74372;BME280;62885;51.374;6.170;2023-04-03T00:46:54;102653.38;;;2.03;89.48
74372;BME280;62885;51.374;6.170;2023-04-03T00:49:19;102649.78;;;2.09;90.38
74372;BME280;62885;51.374;6.170;2023-04-03T00:51:45;102653.31;;;2.08;90.23
74372;BME280;62885;51.374;6.170;2023-04-03T00:54:11;102655.13;;;2.02;90.07
74372;BME280;62885;51.374;6.170;2023-04-03T00:56:37;102655.13;;;1.99;90.28
74372;BME280;62885;51.374;6.170;2023-04-03T00:59:11;102658.75;;;1.88;90.45
74372;BME280;62885;51.374;6.170;2023-04-03T01:01:38;102665.91;;;1.77;90.50
74372;BME280;62885;51.374;6.170;2023-04-03T01:04:05;102664.22;;;1.68;91.43
74372;BME280;62885;51.374;6.170;2023-04-03T01:06:35;102673.13;;;1.55;91.82
74372;BME280;62885;51.374;6.170;2023-04-03T01:09:02;102670.38;;;1.69;91.56
74372;BME280;62885;51.374;6.170;2023-04-03T01:11:28;102671.19;;;1.78;91.35
74372;BME280;62885;51.374;6.170;2023-04-03T01:13:54;102679.94;;;1.86;91.17
74372;BME280;62885;51.374;6.170;2023-04-03T01:16:19;102668.63;;;1.68;91.10
74372;BME280;62885;51.374;6.170;2023-04-03T01:18:45;102669.59;;;1.53;92.00
74372;BME280;62885;51.374;6.170;2023-04-03T01:21:27;102670.50;;;1.52;91.97
74372;BME280;62885;51.374;6.170;2023-04-03T01:24:15;102681.03;;;1.55;92.40
74372;BME280;62885;51.374;6.170;2023-04-03T01:26:42;102677.56;;;1.48;91.80
74372;BME280;62885;51.374;6.170;2023-04-03T01:29:08;102674.00;;;1.54;92.46
74372;BME280;62885;51.374;6.170;2023-04-03T01:31:50;102675.72;;;1.58;92.39
74372;BME280;62885;51.374;6.170;2023-04-03T01:34:15;102681.09;;;1.46;91.79
74372;BME280;62885;51.374;6.170;2023-04-03T01:36:41;102681.97;;;1.48;91.60
74372;BME280;62885;51.374;6.170;2023-04-03T01:39:06;102677.59;;;1.41;91.61
74372;BME280;62885;51.374;6.170;2023-04-03T01:41:32;102686.41;;;1.44;91.44
74372;BME280;62885;51.374;6.170;2023-04-03T01:43:57;102689.09;;;1.38;91.88
74372;BME280;62885;51.374;6.170;2023-04-03T01:46:22;102678.53;;;1.37;91.77
74372;BME280;62885;51.374;6.170;2023-04-03T01:48:49;102682.03;;;1.34;92.61
74372;BME280;62885;51.374;6.170;2023-04-03T01:51:14;102680.28;;;1.39;92.03
74372;BME280;62885;51.374;6.170;2023-04-03T01:53:40;102684.59;;;1.49;91.81
74372;BME280;62885;51.374;6.170;2023-04-03T01:56:07;102675.00;;;1.38;91.99
74372;BME280;62885;51.374;6.170;2023-04-03T01:58:32;102685.53;;;1.44;92.40
74372;BME280;62885;51.374;6.170;2023-04-03T02:00:57;102679.41;;;1.39;92.35
74372;BME280;62885;51.374;6.170;2023-04-03T02:03:23;102683.84;;;1.34;92.67
74372;BME280;62885;51.374;6.170;2023-04-03T02:05:49;102683.03;;;1.21;93.04
74372;BME280;62885;51.374;6.170;2023-04-03T02:08:15;102687.38;;;1.25;93.12
74372;BME280;62885;51.374;6.170;2023-04-03T02:10:43;102683.03;;;1.18;93.82
74372;BME280;62885;51.374;6.170;2023-04-03T02:13:08;102687.44;;;1.19;94.11
74372;BME280;62885;51.374;6.170;2023-04-03T02:15:39;102685.66;;;1.18;93.16
74372;BME280;62885;51.374;6.170;2023-04-03T02:18:05;102686.53;;;1.17;93.39
74372;BME280;62885;51.374;6.170;2023-04-03T02:20:31;102690.06;;;1.20;93.00
74372;BME280;62885;51.374;6.170;2023-04-03T02:22:56;102694.53;;;1.09;93.87
74372;BME280;62885;51.374;6.170;2023-04-03T02:25:21;102690.09;;;1.13;93.88
74372;BME280;62885;51.374;6.170;2023-04-03T02:27:47;102688.31;;;1.18;93.39
74372;BME280;62885;51.374;6.170;2023-04-03T02:30:12;102688.34;;;1.13;94.35
74372;BME280;62885;51.374;6.170;2023-04-03T02:32:40;102693.59;;;1.18;93.72
74372;BME280;62885;51.374;6.170;2023-04-03T02:35:06;102701.53;;;1.16;92.89
74372;BME280;62885;51.374;6.170;2023-04-03T02:37:32;102701.53;;;1.12;93.11
74372;BME280;62885;51.374;6.170;2023-04-03T02:39:57;102697.06;;;1.28;93.59
74372;BME280;62885;51.374;6.170;2023-04-03T02:42:23;102698.81;;;1.22;93.24
74372;BME280;62885;51.374;6.170;2023-04-03T02:44:48;102702.34;;;1.26;93.20
74372;BME280;62885;51.374;6.170;2023-04-03T02:47:13;102696.19;;;1.26;93.00
74372;BME280;62885;51.374;6.170;2023-04-03T02:49:38;102701.47;;;1.27;93.06
74372;BME280;62885;51.374;6.170;2023-04-03T02:52:04;102708.50;;;1.28;91.51
74372;BME280;62885;51.374;6.170;2023-04-03T02:54:29;102702.28;;;1.38;91.99
74372;BME280;62885;51.374;6.170;2023-04-03T02:56:56;102694.31;;;1.41;90.92
74372;BME280;62885;51.374;6.170;2023-04-03T02:59:22;102695.19;;;1.43;91.02
74372;BME280;62885;51.374;6.170;2023-04-03T03:01:47;102690.78;;;1.45;89.94
74372;BME280;62885;51.374;6.170;2023-04-03T03:04:12;102696.03;;;1.51;89.82
74372;BME280;62885;51.374;6.170;2023-04-03T03:06:38;102692.47;;;1.54;89.18
74372;BME280;62885;51.374;6.170;2023-04-03T03:09:04;102698.63;;;1.56;89.59
74372;BME280;62885;51.374;6.170;2023-04-03T03:11:29;102695.91;;;1.65;88.72
74372;BME280;62885;51.374;6.170;2023-04-03T03:13:57;102696.81;;;1.64;88.45
74372;BME280;62885;51.374;6.170;2023-04-03T03:16:23;102695.91;;;1.65;87.77
74372;BME280;62885;51.374;6.170;2023-04-03T03:18:48;102698.56;;;1.68;87.63
74372;BME280;62885;51.374;6.170;2023-04-03T03:21:13;102689.75;;;1.66;87.37
74372;BME280;62885;51.374;6.170;2023-04-03T03:23:39;102688.78;;;1.76;87.20
74372;BME280;62885;51.374;6.170;2023-04-03T03:26:07;102689.63;;;1.81;86.33
74372;BME280;62885;51.374;6.170;2023-04-03T03:28:33;102698.34;;;1.92;85.82
74372;BME280;62885;51.374;6.170;2023-04-03T03:30:58;102693.03;;;1.97;85.69
74372;BME280;62885;51.374;6.170;2023-04-03T03:33:25;102700.09;;;1.93;85.50
74372;BME280;62885;51.374;6.170;2023-04-03T03:35:51;102693.03;;;1.94;85.13
74372;BME280;62885;51.374;6.170;2023-04-03T03:38:16;102695.69;;;1.92;85.43
74372;BME280;62885;51.374;6.170;2023-04-03T03:40:41;102695.69;;;1.92;84.94
74372;BME280;62885;51.374;6.170;2023-04-03T03:43:07;102699.22;;;1.94;84.98
74372;BME280;62885;51.374;6.170;2023-04-03T03:45:32;102697.53;;;1.86;84.63
74372;BME280;62885;51.374;6.170;2023-04-03T03:47:57;102699.31;;;1.81;85.46
74372;BME280;62885;51.374;6.170;2023-04-03T03:50:23;102709.00;;;1.82;85.33
74372;BME280;62885;51.374;6.170;2023-04-03T03:52:48;102707.25;;;1.79;85.29
74372;BME280;62885;51.374;6.170;2023-04-03T03:55:14;102705.56;;;1.71;85.87
74372;BME280;62885;51.374;6.170;2023-04-03T03:57:39;102706.47;;;1.67;85.73
74372;BME280;62885;51.374;6.170;2023-04-03T04:00:05;102719.72;;;1.62;85.71
74372;BME280;62885;51.374;6.170;2023-04-03T04:02:32;102713.50;;;1.66;85.77
74372;BME280;62885;51.374;6.170;2023-04-03T04:04:57;102711.78;;;1.60;85.66
74372;BME280;62885;51.374;6.170;2023-04-03T04:07:23;102708.25;;;1.66;86.43
74372;BME280;62885;51.374;6.170;2023-04-03T04:09:48;102709.13;;;1.63;86.62
74372;BME280;62885;51.374;6.170;2023-04-03T04:12:14;102715.31;;;1.59;86.18
74372;BME280;62885;51.374;6.170;2023-04-03T04:14:39;102717.97;;;1.59;86.48
74372;BME280;62885;51.374;6.170;2023-04-03T04:17:05;102720.66;;;1.50;86.18
74372;BME280;62885;51.374;6.170;2023-04-03T04:19:30;102727.72;;;1.47;85.96
74372;BME280;62885;51.374;6.170;2023-04-03T04:21:56;102724.19;;;1.46;86.31
74372;BME280;62885;51.374;6.170;2023-04-03T04:24:21;102728.63;;;1.41;86.64
74372;BME280;62885;51.374;6.170;2023-04-03T04:26:48;102731.28;;;1.40;86.22
74372;BME280;62885;51.374;6.170;2023-04-03T04:29:13;102734.81;;;1.39;86.41
74372;BME280;62885;51.374;6.170;2023-04-03T04:31:39;102735.69;;;1.35;85.99
74372;BME280;62885;51.374;6.170;2023-04-03T04:34:05;102739.25;;;1.29;86.56
74372;BME280;62885;51.374;6.170;2023-04-03T04:36:30;102734.84;;;1.30;86.79
74372;BME280;62885;51.374;6.170;2023-04-03T04:38:55;102736.63;;;1.26;86.49
74372;BME280;62885;51.374;6.170;2023-04-03T04:41:22;102734.88;;;1.23;86.57
74372;BME280;62885;51.374;6.170;2023-04-03T04:43:48;102730.50;;;1.21;86.15
74372;BME280;62885;51.374;6.170;2023-04-03T04:46:14;102737.53;;;1.17;86.26
74372;BME280;62885;51.374;6.170;2023-04-03T04:48:40;102736.66;;;1.18;86.60
74372;BME280;62885;51.374;6.170;2023-04-03T04:51:06;102737.56;;;1.14;86.71
74372;BME280;62885;51.374;6.170;2023-04-03T04:53:31;102742.84;;;1.14;87.02
74372;BME280;62885;51.374;6.170;2023-04-03T04:55:56;102741.97;;;1.14;87.50
74372;BME280;62885;51.374;6.170;2023-04-03T04:58:22;102735.84;;;1.10;86.61
74372;BME280;62885;51.374;6.170;2023-04-03T05:00:47;102740.25;;;1.08;87.11
74372;BME280;62885;51.374;6.170;2023-04-03T05:03:14;102741.97;;;1.14;87.27
74372;BME280;62885;51.374;6.170;2023-04-03T05:05:39;102742.00;;;1.06;87.40
74372;BME280;62885;51.374;6.170;2023-04-03T05:08:05;102750.78;;;1.07;86.68
74372;BME280;62885;51.374;6.170;2023-04-03T05:10:31;102749.03;;;1.09;86.05
74372;BME280;62885;51.374;6.170;2023-04-03T05:12:57;102749.94;;;1.05;86.95
74372;BME280;62885;51.374;6.170;2023-04-03T05:15:22;102743.78;;;1.00;86.33
74372;BME280;62885;51.374;6.170;2023-04-03T05:17:47;102746.41;;;1.03;87.03
74372;BME280;62885;51.374;6.170;2023-04-03T05:20:13;102759.59;;;1.01;86.42
74372;BME280;62885;51.374;6.170;2023-04-03T05:22:38;102757.88;;;0.96;86.91
74372;BME280;62885;51.374;6.170;2023-04-03T05:25:05;102763.13;;;1.00;86.45
74372;BME280;62885;51.374;6.170;2023-04-03T05:27:30;102757.81;;;1.08;86.65
74372;BME280;62885;51.374;6.170;2023-04-03T05:29:56;102761.34;;;1.07;86.49
74372;BME280;62885;51.374;6.170;2023-04-03T05:32:22;102764.88;;;1.04;86.73
74372;BME280;62885;51.374;6.170;2023-04-03T05:34:48;102766.59;;;1.07;86.66
74372;BME280;62885;51.374;6.170;2023-04-03T05:37:13;102765.63;;;1.32;86.18
74372;BME280;62885;51.374;6.170;2023-04-03T05:39:38;102763.75;;;1.57;84.49
74372;BME280;62885;51.374;6.170;2023-04-03T05:42:06;102774.16;;;1.77;83.30
74372;BME280;62885;51.374;6.170;2023-04-03T05:44:31;102779.22;;;2.09;82.29
74372;BME280;62885;51.374;6.170;2023-04-03T05:46:57;102775.50;;;2.31;80.68
74372;BME280;62885;51.374;6.170;2023-04-03T05:49:22;102785.94;;;2.49;79.94
74372;BME280;62885;51.374;6.170;2023-04-03T05:51:47;102782.41;;;2.47;79.19
74372;BME280;62885;51.374;6.170;2023-04-03T05:54:22;102784.03;;;2.62;78.37
74372;BME280;62885;51.374;6.170;2023-04-03T05:56:49;102789.41;;;2.51;78.64
74372;BME280;62885;51.374;6.170;2023-04-03T05:59:15;102783.88;;;2.78;78.11
74372;BME280;62885;51.374;6.170;2023-04-03T06:01:41;102789.09;;;2.83;77.39
74372;BME280;62885;51.374;6.170;2023-04-03T06:04:06;102779.75;;;3.26;76.77
74372;BME280;62885;51.374;6.170;2023-04-03T06:09:11;102787.69;;;3.26;75.80
74372;BME280;62885;51.374;6.170;2023-04-03T06:11:36;102781.50;;;3.29;75.01
74372;BME280;62885;51.374;6.170;2023-04-03T06:14:02;102787.53;;;3.42;74.78
74372;BME280;62885;51.374;6.170;2023-04-03T06:16:28;102790.84;;;3.56;74.14
74372;BME280;62885;51.374;6.170;2023-04-03T06:18:54;102789.34;;;3.98;73.04
74372;BME280;62885;51.374;6.170;2023-04-03T06:21:20;102789.59;;;3.81;73.51
74372;BME280;62885;51.374;6.170;2023-04-03T06:23:45;102794.53;;;4.05;72.04
74372;BME280;62885;51.374;6.170;2023-04-03T06:26:11;102784.25;;;5.31;68.54
74372;BME280;62885;51.374;6.170;2023-04-03T06:28:36;102793.81;;;7.19;60.17
74372;BME280;62885;51.374;6.170;2023-04-03T06:31:02;102798.09;;;4.58;66.41
74372;BME280;62885;51.374;6.170;2023-04-03T06:33:28;102803.03;;;3.67;70.98
74372;BME280;62885;51.374;6.170;2023-04-03T06:35:59;102794.00;;;3.82;72.05
74372;BME280;62885;51.374;6.170;2023-04-03T06:38:24;102808.38;;;4.24;70.70
74372;BME280;62885;51.374;6.170;2023-04-03T06:40:50;102797.50;;;4.41;70.29
74372;BME280;62885;51.374;6.170;2023-04-03T06:43:16;102809.03;;;3.82;71.27
74372;BME280;62885;51.374;6.170;2023-04-03T06:45:42;102799.72;;;3.55;73.01
74372;BME280;62885;51.374;6.170;2023-04-03T06:48:07;102806.47;;;3.76;72.83
74372;BME280;62885;51.374;6.170;2023-04-03T06:50:32;102808.47;;;3.58;73.49
74372;BME280;62885;51.374;6.170;2023-04-03T06:52:58;102815.09;;;3.24;74.96
74372;BME280;62885;51.374;6.170;2023-04-03T06:55:23;102809.81;;;3.22;75.27
74372;BME280;62885;51.374;6.170;2023-04-03T06:57:49;102812.16;;;3.48;73.96
74372;BME280;62885;51.374;6.170;2023-04-03T07:00:15;102811.69;;;3.14;75.04
74372;BME280;62885;51.374;6.170;2023-04-03T07:02:41;102820.47;;;3.18;75.76
74372;BME280;62885;51.374;6.170;2023-04-03T07:05:07;102820.41;;;3.21;75.34
74372;BME280;62885;51.374;6.170;2023-04-03T07:07:34;102822.22;;;3.17;75.80
74372;BME280;62885;51.374;6.170;2023-04-03T07:10:00;102829.28;;;3.17;76.41
74372;BME280;62885;51.374;6.170;2023-04-03T07:12:25;102827.72;;;3.02;75.67
74372;BME280;62885;51.374;6.170;2023-04-03T07:14:51;102826.84;;;2.99;76.49
74372;BME280;62885;51.374;6.170;2023-04-03T07:17:17;102833.97;;;2.94;76.38
74372;BME280;62885;51.374;6.170;2023-04-03T07:19:42;102840.97;;;2.98;76.77
74372;BME280;62885;51.374;6.170;2023-04-03T07:22:08;102838.31;;;2.98;77.11
74372;BME280;62885;51.374;6.170;2023-04-03T07:24:34;102837.53;;;2.88;76.66
74372;BME280;62885;51.374;6.170;2023-04-03T07:27:00;102835.91;;;2.76;76.92
74372;BME280;62885;51.374;6.170;2023-04-03T07:29:25;102845.41;;;2.94;77.39
74372;BME280;62885;51.374;6.170;2023-04-03T07:31:51;102835.59;;;3.08;76.72
74372;BME280;62885;51.374;6.170;2023-04-03T07:34:17;102838.06;;;3.20;76.93
74372;BME280;62885;51.374;6.170;2023-04-03T07:36:42;102846.09;;;3.14;76.48
74372;BME280;62885;51.374;6.170;2023-04-03T07:39:07;102839.16;;;3.03;76.56
74372;BME280;62885;51.374;6.170;2023-04-03T07:41:33;102836.59;;;2.97;76.56
74372;BME280;62885;51.374;6.170;2023-04-03T07:43:59;102853.22;;;3.06;76.54
74372;BME280;62885;51.374;6.170;2023-04-03T07:46:24;102850.50;;;3.14;76.56
74372;BME280;62885;51.374;6.170;2023-04-03T07:48:49;102847.00;;;3.09;76.06
74372;BME280;62885;51.374;6.170;2023-04-03T07:51:15;102848.69;;;3.19;76.58
74372;BME280;62885;51.374;6.170;2023-04-03T07:53:41;102859.09;;;3.34;75.67
74372;BME280;62885;51.374;6.170;2023-04-03T07:56:07;102853.03;;;3.24;75.26
74372;BME280;62885;51.374;6.170;2023-04-03T07:58:32;102854.75;;;3.28;75.72
74372;BME280;62885;51.374;6.170;2023-04-03T08:00:59;102857.91;;;3.59;76.04
74372;BME280;62885;51.374;6.170;2023-04-03T08:03:27;102867.63;;;3.56;74.64
74372;BME280;62885;51.374;6.170;2023-04-03T08:06:00;102871.06;;;3.65;73.41
74372;BME280;62885;51.374;6.170;2023-04-03T08:08:27;102867.63;;;3.59;72.38
74372;BME280;62885;51.374;6.170;2023-04-03T08:10:54;102863.06;;;3.70;72.73
74372;BME280;62885;51.374;6.170;2023-04-03T08:13:21;102867.31;;;3.82;72.76
74372;BME280;62885;51.374;6.170;2023-04-03T08:15:47;102863.72;;;3.87;72.36
74372;BME280;62885;51.374;6.170;2023-04-03T08:18:14;102860.03;;;3.97;71.86
74372;BME280;62885;51.374;6.170;2023-04-03T08:20:40;102865.31;;;4.00;71.77
74372;BME280;62885;51.374;6.170;2023-04-03T08:23:06;102861.53;;;4.15;71.25
74372;BME280;62885;51.374;6.170;2023-04-03T08:25:31;102858.81;;;4.20;69.30
74372;BME280;62885;51.374;6.170;2023-04-03T08:27:57;102869.66;;;4.04;67.79
74372;BME280;62885;51.374;6.170;2023-04-03T08:30:22;102864.09;;;4.20;67.92
74372;BME280;62885;51.374;6.170;2023-04-03T08:32:48;102875.56;;;4.22;67.47
74372;BME280;62885;51.374;6.170;2023-04-03T08:35:13;102863.38;;;4.11;66.72
74372;BME280;62885;51.374;6.170;2023-04-03T08:37:39;102878.22;;;4.23;66.23
74372;BME280;62885;51.374;6.170;2023-04-03T08:40:06;102876.38;;;4.28;64.45
74372;BME280;62885;51.374;6.170;2023-04-03T08:48:12;102883.00;;;4.55;62.94
74372;BME280;62885;51.374;6.170;2023-04-03T08:50:40;102870.50;;;4.62;63.93
74372;BME280;62885;51.374;6.170;2023-04-03T08:53:13;102870.88;;;4.91;62.35
74372;BME280;62885;51.374;6.170;2023-04-03T08:55:43;102887.09;;;4.74;61.05
74372;BME280;62885;51.374;6.170;2023-04-03T08:58:30;102870.13;;;4.84;61.02
74372;BME280;62885;51.374;6.170;2023-04-03T09:01:19;102876.09;;;4.97;61.19
74372;BME280;62885;51.374;6.170;2023-04-03T09:03:45;102866.16;;;5.08;59.99
74372;BME280;62885;51.374;6.170;2023-04-03T09:06:11;102866.09;;;5.11;59.19
74372;BME280;62885;51.374;6.170;2023-04-03T09:14:29;102869.03;;;4.96;57.52
74372;BME280;62885;51.374;6.170;2023-04-03T09:17:07;102862.69;;;5.03;56.99
74372;BME280;62885;51.374;6.170;2023-04-03T09:19:56;102864.22;;;5.18;56.58
74372;BME280;62885;51.374;6.170;2023-04-03T09:22:27;102878.47;;;5.57;54.73
74372;BME280;62885;51.374;6.170;2023-04-03T09:25:04;102863.75;;;5.41;54.19
74372;BME280;62885;51.374;6.170;2023-04-03T09:27:30;102862.81;;;5.43;52.81
74372;BME280;62885;51.374;6.170;2023-04-03T09:29:57;102867.59;;;5.69;52.12
74372;BME280;62885;51.374;6.170;2023-04-03T09:32:33;102858.13;;;5.56;49.71
74372;BME280;62885;51.374;6.170;2023-04-03T09:35:13;102849.97;;;5.65;50.59
74372;BME280;62885;51.374;6.170;2023-04-03T09:37:49;102858.16;;;5.54;50.72
74372;BME280;62885;51.374;6.170;2023-04-03T09:40:29;102847.13;;;5.72;49.30
74372;BME280;62885;51.374;6.170;2023-04-03T09:43:18;102853.06;;;5.85;47.36
74372;BME280;62885;51.374;6.170;2023-04-03T09:45:46;102844.97;;;5.91;48.16
74372;BME280;62885;51.374;6.170;2023-04-03T09:48:18;102845.63;;;6.02;49.01
74372;BME280;62885;51.374;6.170;2023-04-03T09:55:51;102847.19;;;6.11;45.53
74372;BME280;62885;51.374;6.170;2023-04-03T09:58:25;102845.22;;;6.19;44.84
74372;BME280;62885;51.374;6.170;2023-04-03T10:00:56;102849.09;;;6.41;45.43
74372;BME280;62885;51.374;6.170;2023-04-03T10:03:33;102851.75;;;6.43;38.73
74372;BME280;62885;51.374;6.170;2023-04-03T10:06:01;102851.44;;;6.55;36.36
74372;BME280;62885;51.374;6.170;2023-04-03T10:08:32;102834.25;;;6.68;36.15
74372;BME280;62885;51.374;6.170;2023-04-03T10:13:33;102846.72;;;6.66;33.83
74372;BME280;62885;51.374;6.170;2023-04-03T10:16:14;102840.47;;;6.69;36.56
74372;BME280;62885;51.374;6.170;2023-04-03T10:21:59;102845.78;;;7.01;37.35
74372;BME280;62885;51.374;6.170;2023-04-03T10:24:59;102842.19;;;7.04;39.35
74372;BME280;62885;51.374;6.170;2023-04-03T10:27:35;102853.16;;;6.91;35.71
74372;BME280;62885;51.374;6.170;2023-04-03T10:38:18;102835.78;;;6.77;35.25
74372;BME280;62885;51.374;6.170;2023-04-03T10:43:50;102828.72;;;6.76;35.75
74372;BME280;62885;51.374;6.170;2023-04-03T10:46:52;102814.75;;;7.00;35.69
74372;BME280;62885;51.374;6.170;2023-04-03T10:49:49;102836.91;;;7.02;36.12
74372;BME280;62885;51.374;6.170;2023-04-03T10:57:25;102806.41;;;6.81;34.52
74372;BME280;62885;51.374;6.170;2023-04-03T11:00:09;102794.97;;;7.10;34.07
74372;BME280;62885;51.374;6.170;2023-04-03T11:02:48;102787.44;;;7.24;33.15
74372;BME280;62885;51.374;6.170;2023-04-03T11:07:57;102788.41;;;7.22;32.42
74372;BME280;62885;51.374;6.170;2023-04-03T11:10:46;102795.00;;;7.39;31.81
74372;BME280;62885;51.374;6.170;2023-04-03T11:15:38;102784.78;;;7.54;31.24
74372;BME280;62885;51.374;6.170;2023-04-03T11:18:09;102791.03;;;7.53;30.63
74372;BME280;62885;51.374;6.170;2023-04-03T11:20:38;102789.78;;;7.64;31.08
74372;BME280;62885;51.374;6.170;2023-04-03T11:23:31;102786.53;;;7.55;31.19
74372;BME280;62885;51.374;6.170;2023-04-03T11:26:09;102791.72;;;7.59;32.19
74372;BME280;62885;51.374;6.170;2023-04-03T11:28:36;102795.22;;;7.32;31.51
74372;BME280;62885;51.374;6.170;2023-04-03T11:31:38;102778.13;;;7.68;32.14
74372;BME280;62885;51.374;6.170;2023-04-03T11:36:48;102778.25;;;7.34;32.57
74372;BME280;62885;51.374;6.170;2023-04-03T11:39:35;102757.19;;;7.84;33.59
74372;BME280;62885;51.374;6.170;2023-04-03T11:42:36;102783.13;;;7.79;31.75
74372;BME280;62885;51.374;6.170;2023-04-03T12:00:48;102739.78;;;7.99;32.63
74372;BME280;62885;51.374;6.170;2023-04-03T12:05:48;102733.75;;;8.20;33.78
74372;BME280;62885;51.374;6.170;2023-04-03T12:08:30;102742.00;;;8.12;34.31
74372;BME280;62885;51.374;6.170;2023-04-03T12:16:21;102733.19;;;8.10;31.48
74372;BME280;62885;51.374;6.170;2023-04-03T12:21:24;102734.78;;;8.16;32.34
74372;BME280;62885;51.374;6.170;2023-04-03T12:29:37;102729.97;;;8.53;36.00
74372;BME280;62885;51.374;6.170;2023-04-03T12:35:16;102730.44;;;8.40;34.81
74372;BME280;62885;51.374;6.170;2023-04-03T12:43:28;102715.75;;;8.53;37.75
74372;BME280;62885;51.374;6.170;2023-04-03T12:46:02;102739.56;;;8.84;36.00
74372;BME280;62885;51.374;6.170;2023-04-03T12:48:31;102726.59;;;8.48;37.14
74372;BME280;62885;51.374;6.170;2023-04-03T12:50:58;102733.25;;;8.35;36.06
74372;BME280;62885;51.374;6.170;2023-04-03T12:53:35;102696.59;;;8.40;36.97
74372;BME280;62885;51.374;6.170;2023-04-03T12:56:25;102702.28;;;8.31;37.41
74372;BME280;62885;51.374;6.170;2023-04-03T12:58:53;102700.16;;;8.41;37.52
74372;BME280;62885;51.374;6.170;2023-04-03T13:01:24;102697.75;;;8.58;38.93
74372;BME280;62885;51.374;6.170;2023-04-03T13:03:54;102710.19;;;8.59;36.79
74372;BME280;62885;51.374;6.170;2023-04-03T13:06:30;102697.38;;;8.69;36.92
74372;BME280;62885;51.374;6.170;2023-04-03T13:08:59;102707.06;;;8.46;36.92
74372;BME280;62885;51.374;6.170;2023-04-03T13:11:34;102693.06;;;8.40;37.44
74372;BME280;62885;51.374;6.170;2023-04-03T13:14:03;102700.19;;;8.13;37.36
74372;BME280;62885;51.374;6.170;2023-04-03T13:16:30;102684.66;;;8.50;38.19
74372;BME280;62885;51.374;6.170;2023-04-03T13:18:57;102685.50;;;8.52;36.85
74372;BME280;62885;51.374;6.170;2023-04-03T13:21:28;102683.38;;;8.37;35.31
74372;BME280;62885;51.374;6.170;2023-04-03T13:23:58;102692.38;;;8.59;35.95
74372;BME280;62885;51.374;6.170;2023-04-03T13:26:28;102686.97;;;8.61;36.71
74372;BME280;62885;51.374;6.170;2023-04-03T13:28:59;102687.25;;;8.53;37.36
74372;BME280;62885;51.374;6.170;2023-04-03T13:31:28;102696.13;;;8.79;36.78
74372;BME280;62885;51.374;6.170;2023-04-03T13:34:10;102683.88;;;8.22;34.69
74372;BME280;62885;51.374;6.170;2023-04-03T13:36:46;102712.56;;;8.42;34.94
74372;BME280;62885;51.374;6.170;2023-04-03T13:39:24;102673.81;;;8.80;35.68
74372;BME280;62885;51.374;6.170;2023-04-03T13:41:52;102691.97;;;8.70;35.46
74372;BME280;62885;51.374;6.170;2023-04-03T13:44:27;102694.72;;;8.44;35.78
74372;BME280;62885;51.374;6.170;2023-04-03T13:46:56;102676.34;;;8.59;35.58
74372;BME280;62885;51.374;6.170;2023-04-03T13:49:37;102677.84;;;8.43;36.15
74372;BME280;62885;51.374;6.170;2023-04-03T13:52:27;102668.88;;;8.69;36.45
74372;BME280;62885;51.374;6.170;2023-04-03T13:55:03;102672.47;;;8.91;36.95
74372;BME280;62885;51.374;6.170;2023-04-03T13:57:36;102660.63;;;8.75;36.61
74372;BME280;62885;51.374;6.170;2023-04-03T14:02:50;102662.59;;;8.93;36.57
74372;BME280;62885;51.374;6.170;2023-04-03T14:05:19;102657.53;;;8.62;35.05
74372;BME280;62885;51.374;6.170;2023-04-03T14:07:46;102659.03;;;8.94;36.05
74372;BME280;62885;51.374;6.170;2023-04-03T14:10:11;102688.44;;;8.70;35.11
74372;BME280;62885;51.374;6.170;2023-04-03T14:12:37;102654.72;;;8.67;35.99
74372;BME280;62885;51.374;6.170;2023-04-03T14:15:14;102647.50;;;8.69;36.18
74372;BME280;62885;51.374;6.170;2023-04-03T14:17:40;102644.19;;;8.86;36.39
74372;BME280;62885;51.374;6.170;2023-04-03T14:20:14;102634.56;;;8.58;36.34
74372;BME280;62885;51.374;6.170;2023-04-03T14:22:40;102641.88;;;8.77;35.98
74372;BME280;62885;51.374;6.170;2023-04-03T14:25:06;102627.47;;;9.04;36.29
74372;BME280;62885;51.374;6.170;2023-04-03T14:27:58;102636.81;;;8.92;36.65
74372;BME280;62885;51.374;6.170;2023-04-03T14:30:33;102639.41;;;8.95;36.54
74372;BME280;62885;51.374;6.170;2023-04-03T14:33:02;102633.56;;;9.07;36.35
74372;BME280;62885;51.374;6.170;2023-04-03T14:35:27;102626.34;;;9.10;34.70
74372;BME280;62885;51.374;6.170;2023-04-03T14:37:53;102623.59;;;8.89;35.01
74372;BME280;62885;51.374;6.170;2023-04-03T14:40:24;102621.84;;;8.88;34.96
74372;BME280;62885;51.374;6.170;2023-04-03T14:42:51;102633.56;;;9.07;35.39